Time;durP1;ratioP1;P1;durP2;ratioP2;P2;SDS_P1;SDS_P2;PMS_P1;PMS_P2;Temp;Humidity;BMP_temperature;BMP_pressure;BME280_temperature;BME280_humidity;BME280_pressure;Samples;Min_cycle;Max_cycle;Signal;HPM_P1;HPM_P2
2022/12/21 00:01:08;;;;;;;;;;;19.70;51.90;;;;;;5087084;27;43420;-61
2022/12/21 00:03:35;;;;;;;;;;;19.70;51.90;;;;;;5095015;27;43595;-61
2022/12/21 00:06:04;;;;;;;;;;;19.70;51.90;;;;;;5093962;27;43569;-61
2022/12/21 00:08:38;;;;;;;;;;;19.70;51.90;;;;;;5087618;27;44677;-60
2022/12/21 00:11:06;;;;;;;;;;;19.70;51.90;;;;;;5081645;28;43703;-61
2022/12/21 00:13:33;;;;;;;;;;;19.70;51.90;;;;;;5082241;28;43494;-61
2022/12/21 00:16:04;;;;;;;;;;;19.70;52.00;;;;;;5082956;28;43436;-61
2022/12/21 00:18:36;;;;;;;;;;;19.60;51.90;;;;;;5081738;28;44748;-61
2022/12/21 00:21:05;;;;;;;;;;;19.60;51.90;;;;;;5067296;28;43488;-61
2022/12/21 00:23:32;;;;;;;;;;;19.60;51.90;;;;;;5081889;28;43340;-61
2022/12/21 00:26:02;;;;;;;;;;;19.60;51.90;;;;;;5082527;28;43696;-61
2022/12/21 00:28:29;;;;;;;;;;;19.60;51.90;;;;;;5082162;28;44670;-61
2022/12/21 00:31:03;;;;;;;;;;;19.60;51.90;;;;;;5081217;27;43399;-61
2022/12/21 00:33:31;;;;;;;;;;;19.60;51.90;;;;;;5082218;28;43395;-61
2022/12/21 00:36:00;;;;;;;;;;;19.60;51.90;;;;;;5082618;28;43478;-61
2022/12/21 00:38:28;;;;;;;;;;;19.60;52.00;;;;;;5081361;28;43847;-60
2022/12/21 00:40:57;;;;;;;;;;;19.60;51.90;;;;;;5082689;28;43484;-61
2022/12/21 00:43:24;;;;;;;;;;;19.60;52.60;;;;;;5082361;28;43449;-61
2022/12/21 00:45:52;;;;;;;;;;;19.50;51.90;;;;;;5081327;28;43479;-61
2022/12/21 00:48:19;;;;;;;;;;;19.50;51.90;;;;;;5081936;28;44634;-61
2022/12/21 00:50:47;;;;;;;;;;;19.50;51.90;;;;;;5064057;28;43454;-61
2022/12/21 00:53:15;;;;;;;;;;;19.50;51.90;;;;;;5063184;28;43902;-61
2022/12/21 00:55:55;;;;;;;;;;;19.50;51.90;;;;;;5082417;28;43497;-61
2022/12/21 00:58:23;;;;;;;;;;;19.50;52.00;;;;;;5047678;28;44671;-61
2022/12/21 01:00:53;;;;;;;;;;;19.50;51.90;;;;;;5081456;28;43530;-61
2022/12/21 01:03:21;;;;;;;;;;;19.50;51.90;;;;;;5081658;28;43403;-61
2022/12/21 01:05:49;;;;;;;;;;;19.50;51.90;;;;;;5081798;28;43446;-61
2022/12/21 01:08:17;;;;;;;;;;;19.50;51.90;;;;;;5084082;27;44143;-61
2022/12/21 01:10:44;;;;;;;;;;;19.40;51.90;;;;;;5092031;27;43367;-61
2022/12/21 01:13:13;;;;;;;;;;;19.40;51.90;;;;;;5094208;27;43486;-61
2022/12/21 01:15:41;;;;;;;;;;;19.40;52.00;;;;;;5087292;27;43434;-61
2022/12/21 01:18:08;;;;;;;;;;;19.40;51.90;;;;;;5103761;27;44016;-61
2022/12/21 01:20:40;;;;;;;;;;;19.40;52.50;;;;;;5095353;27;43717;-61
2022/12/21 01:23:07;;;;;;;;;;;19.40;51.90;;;;;;5099343;27;43959;-61
2022/12/21 01:25:36;;;;;;;;;;;19.40;52.00;;;;;;5089384;27;43559;-61
2022/12/21 01:28:03;;;;;;;;;;;19.40;52.00;;;;;;5099463;27;44643;-61
2022/12/21 01:30:31;;;;;;;;;;;19.40;51.90;;;;;;5093582;27;44147;-61
2022/12/21 01:32:58;;;;;;;;;;;19.40;51.90;;;;;;5091969;27;43433;-61
2022/12/21 01:35:25;;;;;;;;;;;19.40;51.90;;;;;;5101595;27;43425;-61
2022/12/21 01:37:53;;;;;;;;;;;19.40;51.90;;;;;;5090793;27;43888;-61
2022/12/21 01:40:21;;;;;;;;;;;19.30;51.90;;;;;;5094625;27;44023;-61
2022/12/21 01:42:49;;;;;;;;;;;19.30;51.90;;;;;;5091748;27;43448;-61
2022/12/21 01:45:21;;;;;;;;;;;19.30;52.00;;;;;;5101926;27;43599;-61
2022/12/21 01:47:52;;;;;;;;;;;19.30;51.90;;;;;;5091237;27;44924;-61
2022/12/21 01:50:23;;;;;;;;;;;19.30;51.90;;;;;;5093622;27;43360;-61
2022/12/21 01:52:51;;;;;;;;;;;19.30;51.90;;;;;;5100817;27;43960;-61
2022/12/21 01:55:18;;;;;;;;;;;19.30;52.00;;;;;;5087375;27;43451;-61
2022/12/21 01:57:46;;;;;;;;;;;19.30;52.00;;;;;;5095847;27;44792;-61
2022/12/21 02:00:15;;;;;;;;;;;19.30;51.90;;;;;;5084100;27;43515;-61
2022/12/21 02:02:53;;;;;;;;;;;19.20;52.50;;;;;;5084657;27;43465;-61
2022/12/21 02:05:21;;;;;;;;;;;19.20;51.90;;;;;;5090253;27;43430;-61
2022/12/21 02:07:50;;;;;;;;;;;19.20;51.90;;;;;;5093965;27;43775;-61
2022/12/21 02:10:18;;;;;;;;;;;19.20;52.00;;;;;;5095965;27;43420;-61
2022/12/21 02:12:47;;;;;;;;;;;19.10;51.90;;;;;;5088489;27;43429;-61
2022/12/21 02:15:14;;;;;;;;;;;19.10;51.90;;;;;;5099978;27;43438;-61
2022/12/21 02:17:41;;;;;;;;;;;19.20;52.00;;;;;;5093614;27;43902;-61
2022/12/21 02:20:28;;;;;;;;;;;19.10;51.90;;;;;;5091005;27;43414;-61
2022/12/21 02:23:16;;;;;;;;;;;19.10;52.00;;;;;;5100154;27;43413;-61
2022/12/21 02:26:02;;;;;;;;;;;19.10;52.00;;;;;;5092425;27;43597;-61
2022/12/21 02:28:49;;;;;;;;;;;19.10;51.90;;;;;;5098408;27;43727;-61
2022/12/21 02:31:25;;;;;;;;;;;19.10;52.00;;;;;;5092059;27;43425;-61
2022/12/21 02:33:58;;;;;;;;;;;19.10;51.40;;;;;;5091221;27;43377;-61
2022/12/21 02:36:39;;;;;;;;;;;19.10;52.00;;;;;;5099856;27;43506;-61
2022/12/21 02:39:07;;;;;;;;;;;19.10;51.90;;;;;;5090226;27;44678;-61
2022/12/21 02:41:54;;;;;;;;;;;19.00;52.00;;;;;;5091490;27;43523;-61
2022/12/21 02:44:30;;;;;;;;;;;19.10;52.00;;;;;;5083739;27;43402;-61
2022/12/21 02:47:11;;;;;;;;;;;19.00;51.90;;;;;;5090864;27;43349;-61
2022/12/21 02:49:45;;;;;;;;;;;19.00;51.90;;;;;;5089174;27;44309;-61
2022/12/21 02:52:17;;;;;;;;;;;19.00;51.90;;;;;;5098838;27;43475;-61
2022/12/21 02:54:44;;;;;;;;;;;19.00;51.90;;;;;;5091040;27;43355;-61
2022/12/21 02:57:13;;;;;;;;;;;19.00;51.90;;;;;;5075504;28;43577;-61
2022/12/21 02:59:43;;;;;;;;;;;19.00;51.90;;;;;;5081895;27;43805;-61
2022/12/21 03:02:14;;;;;;;;;;;19.00;51.90;;;;;;5085906;27;43528;-61
2022/12/21 03:05:12;;;;;;;;;;;19.00;51.90;;;;;;5102076;27;43409;-61
2022/12/21 03:08:04;;;;;;;;;;;18.90;51.90;;;;;;5080691;27;43622;-61
2022/12/21 03:10:35;;;;;;;;;;;18.90;51.90;;;;;;5052586;28;44683;-61
2022/12/21 03:13:16;;;;;;;;;;;18.90;52.00;;;;;;5064864;28;43531;-61
2022/12/21 03:15:59;;;;;;;;;;;18.90;51.90;;;;;;5065675;28;43530;-61
2022/12/21 03:18:32;;;;;;;;;;;18.90;51.90;;;;;;5065558;28;43408;-61
2022/12/21 03:21:00;;;;;;;;;;;18.90;51.90;;;;;;5083358;28;44963;-61
2022/12/21 03:23:34;;;;;;;;;;;18.90;51.90;;;;;;5064939;28;43408;-61
2022/12/21 03:26:05;;;;;;;;;;;18.90;51.90;;;;;;5083688;28;43404;-61
2022/12/21 03:28:35;;;;;;;;;;;18.90;52.00;;;;;;5064723;28;43484;-60
2022/12/21 03:31:04;;;;;;;;;;;18.90;52.00;;;;;;5083289;28;45094;-61
2022/12/21 03:33:34;;;;;;;;;;;18.80;51.90;;;;;;5085961;27;43528;-61
2022/12/21 03:36:05;;;;;;;;;;;18.80;51.90;;;;;;5083427;28;43439;-61
2022/12/21 03:38:40;;;;;;;;;;;18.80;51.90;;;;;;5081000;27;43523;-61
2022/12/21 03:41:11;;;;;;;;;;;18.80;52.00;;;;;;5079130;28;44048;-61
2022/12/21 03:43:41;;;;;;;;;;;18.80;51.90;;;;;;5066809;28;43429;-61
2022/12/21 03:46:12;;;;;;;;;;;18.80;51.90;;;;;;5083261;28;43397;-61
2022/12/21 03:48:44;;;;;;;;;;;18.80;51.90;;;;;;5082961;28;43855;-61
2022/12/21 03:51:19;;;;;;;;;;;18.80;51.90;;;;;;5082480;28;45731;-61
2022/12/21 03:53:49;;;;;;;;;;;18.80;52.00;;;;;;5081675;28;43502;-61
2022/12/21 03:56:20;;;;;;;;;;;18.80;52.00;;;;;;5083374;28;43511;-61
2022/12/21 03:58:48;;;;;;;;;;;18.80;52.00;;;;;;5082918;28;43384;-61
2022/12/21 04:01:21;;;;;;;;;;;18.70;52.50;;;;;;5082148;28;43900;-61
2022/12/21 04:03:52;;;;;;;;;;;18.70;52.60;;;;;;5082119;28;43452;-61
2022/12/21 04:06:21;;;;;;;;;;;18.70;51.90;;;;;;5082822;28;43472;-61
2022/12/21 04:08:50;;;;;;;;;;;18.70;51.90;;;;;;5092554;27;43510;-61
2022/12/21 04:14:03;;;;;;;;;;;18.70;52.00;;;;;;5095166;27;43538;-61
2022/12/21 04:16:30;;;;;;;;;;;18.70;52.60;;;;;;5086314;27;43469;-61
2022/12/21 04:22:04;;;;;;;;;;;18.60;51.90;;;;;;5040217;28;43808;-61
2022/12/21 04:30:04;;;;;;;;;;;18.60;52.00;;;;;;5097281;27;43460;-61
2022/12/21 04:32:32;;;;;;;;;;;18.60;52.00;;;;;;5086295;27;45046;-61
2022/12/21 04:34:59;;;;;;;;;;;18.50;52.00;;;;;;5096746;27;43373;-61
2022/12/21 04:37:33;;;;;;;;;;;18.60;52.10;;;;;;5092950;27;43411;-61
2022/12/21 04:40:03;;;;;;;;;;;18.60;52.00;;;;;;5087065;27;43404;-61
2022/12/21 04:42:30;;;;;;;;;;;18.60;52.00;;;;;;5098639;27;44949;-61
2022/12/21 04:44:58;;;;;;;;;;;18.50;52.00;;;;;;5089513;27;43881;-61
2022/12/21 04:47:25;;;;;;;;;;;18.50;52.00;;;;;;5091171;27;43364;-61
2022/12/21 04:49:53;;;;;;;;;;;18.50;52.00;;;;;;5098284;27;43518;-61
2022/12/21 04:52:20;;;;;;;;;;;18.50;51.90;;;;;;5089899;27;44763;-61
2022/12/21 04:54:47;;;;;;;;;;;18.50;51.90;;;;;;5094316;27;43376;-61
2022/12/21 04:57:15;;;;;;;;;;;18.50;52.00;;;;;;5098055;27;43433;-61
2022/12/21 04:59:44;;;;;;;;;;;18.50;52.00;;;;;;5089519;27;44069;-61
2022/12/21 05:02:11;;;;;;;;;;;18.50;52.00;;;;;;5104125;27;44051;-61
2022/12/21 05:04:39;;;;;;;;;;;18.50;51.90;;;;;;5111425;27;43415;-61
2022/12/21 05:07:07;;;;;;;;;;;18.50;52.00;;;;;;5097649;27;43381;-61
2022/12/21 05:09:34;;;;;;;;;;;18.50;51.90;;;;;;5089475;27;43550;-61
2022/12/21 05:12:01;;;;;;;;;;;18.50;52.00;;;;;;5101404;27;43879;-61
2022/12/21 05:14:28;;;;;;;;;;;18.50;51.90;;;;;;5093198;27;43417;-61
2022/12/21 05:16:56;;;;;;;;;;;18.40;51.90;;;;;;5094832;27;43340;-61
2022/12/21 05:19:23;;;;;;;;;;;18.50;51.90;;;;;;5101022;27;43554;-61
2022/12/21 05:21:51;;;;;;;;;;;18.40;51.90;;;;;;5089535;27;43813;-61
2022/12/21 05:24:18;;;;;;;;;;;18.40;51.90;;;;;;5097991;27;43339;-61
2022/12/21 05:26:46;;;;;;;;;;;18.40;52.00;;;;;;5086956;27;43404;-61
2022/12/21 05:29:13;;;;;;;;;;;18.40;51.90;;;;;;5101326;27;43511;-61
2022/12/21 05:31:40;;;;;;;;;;;18.40;51.90;;;;;;5088834;27;43774;-61
2022/12/21 05:34:08;;;;;;;;;;;18.40;51.90;;;;;;5097286;27;43486;-61
2022/12/21 05:36:35;;;;;;;;;;;18.40;52.10;;;;;;5097637;27;43473;-61
2022/12/21 05:39:02;;;;;;;;;;;18.40;52.00;;;;;;5089319;27;43431;-61
2022/12/21 05:41:30;;;;;;;;;;;18.40;51.90;;;;;;5101579;27;44700;-61
2022/12/21 05:43:57;;;;;;;;;;;18.40;51.90;;;;;;5092844;27;43987;-61
2022/12/21 05:46:24;;;;;;;;;;;18.30;51.90;;;;;;5092708;27;43354;-61
2022/12/21 05:48:53;;;;;;;;;;;18.30;51.90;;;;;;5100977;27;43516;-60
2022/12/21 05:51:20;;;;;;;;;;;18.30;51.90;;;;;;5088676;27;43776;-61
2022/12/21 05:53:48;;;;;;;;;;;18.30;51.90;;;;;;5097049;27;43674;-61
2022/12/21 05:56:15;;;;;;;;;;;18.30;52.10;;;;;;5096825;27;43469;-61
2022/12/21 05:58:43;;;;;;;;;;;18.30;52.00;;;;;;5089440;27;43504;-61
2022/12/21 06:01:10;;;;;;;;;;;18.30;52.10;;;;;;5101387;27;43835;-61
2022/12/21 06:03:39;;;;;;;;;;;18.30;52.10;;;;;;5089677;27;44019;-61
2022/12/21 06:06:08;;;;;;;;;;;18.30;52.10;;;;;;5105078;27;44066;-61
2022/12/21 06:08:37;;;;;;;;;;;18.30;52.00;;;;;;5088094;27;43434;-60
2022/12/21 06:11:05;;;;;;;;;;;18.30;52.00;;;;;;5101876;27;44942;-61
2022/12/21 06:13:33;;;;;;;;;;;18.30;51.90;;;;;;5096634;27;43395;-61
2022/12/21 06:16:06;;;;;;;;;;;18.30;51.90;;;;;;5096083;27;43539;-61
2022/12/21 06:18:34;;;;;;;;;;;18.30;51.90;;;;;;5088500;27;43451;-61
2022/12/21 06:21:02;;;;;;;;;;;18.40;51.90;;;;;;5100105;27;44988;-61
2022/12/21 06:23:29;;;;;;;;;;;18.40;51.80;;;;;;5095328;27;43369;-61
2022/12/21 06:25:58;;;;;;;;;;;18.40;51.90;;;;;;5098416;27;43502;-61
2022/12/21 06:28:26;;;;;;;;;;;18.30;51.80;;;;;;5088017;27;43584;-61
2022/12/21 06:30:53;;;;;;;;;;;18.30;51.80;;;;;;5099982;27;43777;-61
2022/12/21 06:33:22;;;;;;;;;;;18.30;51.80;;;;;;5093208;27;43482;-61
2022/12/21 06:35:54;;;;;;;;;;;18.40;51.80;;;;;;5092152;27;43507;-60
2022/12/21 06:38:23;;;;;;;;;;;18.40;51.80;;;;;;5102242;27;43403;-61
2022/12/21 06:40:57;;;;;;;;;;;18.30;51.80;;;;;;5085235;27;44688;-61
2022/12/21 06:43:25;;;;;;;;;;;18.30;51.80;;;;;;5095201;27;43518;-61
2022/12/21 06:45:54;;;;;;;;;;;18.30;51.80;;;;;;5089022;27;43441;-61
2022/12/21 06:48:21;;;;;;;;;;;18.30;51.80;;;;;;5101527;27;43633;-61
2022/12/21 06:50:53;;;;;;;;;;;18.30;51.90;;;;;;5090909;27;44683;-61
2022/12/21 06:53:21;;;;;;;;;;;18.30;51.80;;;;;;5104307;27;43510;-61
2022/12/21 06:55:48;;;;;;;;;;;18.30;51.80;;;;;;5088788;27;43503;-61
2022/12/21 06:58:16;;;;;;;;;;;18.30;51.80;;;;;;5100260;27;43478;-60
2022/12/21 07:00:43;;;;;;;;;;;18.30;51.90;;;;;;5092638;27;43791;-61
2022/12/21 07:03:10;;;;;;;;;;;18.30;51.90;;;;;;5097482;27;43481;-61
2022/12/21 07:05:37;;;;;;;;;;;18.30;51.90;;;;;;5104081;27;43329;-61
2022/12/21 07:08:04;;;;;;;;;;;18.30;51.90;;;;;;5100294;27;43623;-61
2022/12/21 07:10:32;;;;;;;;;;;18.30;51.90;;;;;;5091676;27;43790;-61
2022/12/21 07:13:08;;;;;;;;;;;18.30;51.90;;;;;;5090236;27;43629;-61
2022/12/21 07:15:36;;;;;;;;;;;18.30;51.90;;;;;;5101400;27;43328;-61
2022/12/21 07:18:03;;;;;;;;;;;18.30;51.90;;;;;;5089484;27;43430;-61
2022/12/21 07:20:32;;;;;;;;;;;18.30;51.90;;;;;;5094820;27;43768;-61
2022/12/21 07:22:59;;;;;;;;;;;18.20;51.90;;;;;;5097317;27;43425;-61
2022/12/21 07:25:26;;;;;;;;;;;18.30;52.00;;;;;;5087001;27;43416;-61
2022/12/21 07:27:55;;;;;;;;;;;18.30;51.90;;;;;;5098910;27;43469;-61
2022/12/21 07:30:22;;;;;;;;;;;18.30;52.00;;;;;;5084327;27;44785;-61
2022/12/21 07:32:51;;;;;;;;;;;18.20;51.90;;;;;;5096405;27;43873;-61
2022/12/21 07:35:20;;;;;;;;;;;18.20;51.90;;;;;;5087131;27;43450;-61
2022/12/21 07:37:48;;;;;;;;;;;18.20;51.90;;;;;;5103503;27;43569;-61
2022/12/21 07:40:16;;;;;;;;;;;18.20;51.90;;;;;;5102603;27;44647;-61
2022/12/21 07:42:44;;;;;;;;;;;18.20;51.90;;;;;;5090054;27;43521;-61
2022/12/21 07:45:40;;;;;;;;;;;18.20;51.90;;;;;;5096518;27;43384;-61
2022/12/21 07:48:13;;;;;;;;;;;18.20;51.90;;;;;;5091757;27;43436;-61
2022/12/21 07:50:40;;;;;;;;;;;18.20;51.90;;;;;;5100472;27;43996;-61
2022/12/21 07:53:07;;;;;;;;;;;18.20;51.90;;;;;;5097669;27;43517;-60
2022/12/21 07:55:35;;;;;;;;;;;18.20;52.10;;;;;;5089738;27;43420;-61
2022/12/21 07:58:02;;;;;;;;;;;18.10;51.90;;;;;;5095953;27;43596;-61
2022/12/21 08:00:29;;;;;;;;;;;18.10;52.00;;;;;;5103083;27;44042;-61
2022/12/21 08:02:57;;;;;;;;;;;18.10;52.10;;;;;;5100525;27;43440;-61
2022/12/21 08:05:24;;;;;;;;;;;18.10;52.20;;;;;;5096773;27;43391;-61
2022/12/21 08:07:52;;;;;;;;;;;18.10;52.00;;;;;;5091671;27;43434;-61
2022/12/21 08:10:20;;;;;;;;;;;18.10;52.10;;;;;;5094028;27;43876;-61
2022/12/21 08:12:47;;;;;;;;;;;18.10;52.20;;;;;;5100468;27;44059;-61
2022/12/21 08:15:14;;;;;;;;;;;18.10;52.20;;;;;;5088630;27;43563;-61
2022/12/21 08:17:42;;;;;;;;;;;18.10;52.20;;;;;;5092706;27;43481;-61
2022/12/21 08:20:11;;;;;;;;;;;18.10;52.10;;;;;;5097145;27;44670;-62
2022/12/21 08:22:38;;;;;;;;;;;18.10;52.10;;;;;;5084545;27;43844;-61
2022/12/21 08:25:06;;;;;;;;;;;18.20;52.80;;;;;;5088047;27;43384;-61
2022/12/21 08:27:33;;;;;;;;;;;18.20;52.30;;;;;;5092737;27;43485;-61
2022/12/21 08:30:01;;;;;;;;;;;18.20;52.30;;;;;;5081572;27;43914;-61
2022/12/21 08:32:29;;;;;;;;;;;18.20;52.30;;;;;;5099468;27;43744;-61
2022/12/21 08:34:56;;;;;;;;;;;18.20;52.40;;;;;;5089059;27;43449;-61
2022/12/21 08:37:24;;;;;;;;;;;18.20;52.30;;;;;;5102220;27;43494;-61
2022/12/21 08:39:51;;;;;;;;;;;18.20;52.40;;;;;;5087039;27;44033;-61
2022/12/21 08:42:19;;;;;;;;;;;18.30;52.30;;;;;;5099578;27;43529;-61
2022/12/21 08:44:48;;;;;;;;;;;18.30;52.40;;;;;;5088241;27;43416;-61
2022/12/21 08:47:15;;;;;;;;;;;18.30;52.20;;;;;;5102543;27;43587;-61
2022/12/21 08:49:43;;;;;;;;;;;18.30;52.10;;;;;;5087288;27;44007;-62
2022/12/21 08:52:11;;;;;;;;;;;18.30;52.20;;;;;;5099362;27;43451;-63
2022/12/21 08:54:38;;;;;;;;;;;18.30;52.40;;;;;;5088892;27;43370;-63
2022/12/21 08:57:05;;;;;;;;;;;18.30;52.20;;;;;;5089311;27;43508;-62
2022/12/21 08:59:33;;;;;;;;;;;18.40;52.20;;;;;;5096029;27;44772;-61
2022/12/21 09:02:00;;;;;;;;;;;18.40;52.30;;;;;;5086191;27;43450;-62
2022/12/21 09:04:28;;;;;;;;;;;18.40;52.20;;;;;;5102033;27;43471;-64
2022/12/21 09:06:55;;;;;;;;;;;18.50;52.10;;;;;;5095532;27;43735;-64
2022/12/21 09:09:24;;;;;;;;;;;18.50;52.30;;;;;;5089581;27;45243;-61
2022/12/21 09:11:51;;;;;;;;;;;18.50;52.30;;;;;;5086255;27;43471;-60
2022/12/21 09:14:21;;;;;;;;;;;18.50;52.20;;;;;;5091145;27;43450;-60
2022/12/21 09:16:49;;;;;;;;;;;18.50;52.10;;;;;;5091879;27;43482;-60
2022/12/21 09:19:16;;;;;;;;;;;18.60;52.00;;;;;;5086522;27;44805;-61
2022/12/21 09:21:44;;;;;;;;;;;18.70;51.90;;;;;;5103424;27;43470;-61
2022/12/21 09:24:11;;;;;;;;;;;18.80;51.90;;;;;;5093470;27;43478;-61
2022/12/21 09:26:38;;;;;;;;;;;18.80;51.60;;;;;;5093146;27;43436;-61
2022/12/21 09:29:06;;;;;;;;;;;18.90;51.60;;;;;;5101897;27;44680;-60
2022/12/21 09:31:33;;;;;;;;;;;19.00;51.60;;;;;;5092398;27;43501;-61
2022/12/21 09:34:00;;;;;;;;;;;19.10;51.60;;;;;;5089843;27;43502;-60
2022/12/21 09:36:28;;;;;;;;;;;19.30;51.40;;;;;;5091429;27;43493;-60
2022/12/21 09:38:56;;;;;;;;;;;19.40;51.20;;;;;;5093651;27;43985;-60
2022/12/21 09:41:38;;;;;;;;;;;19.50;51.20;;;;;;5103294;27;43779;-60
2022/12/21 09:44:24;;;;;;;;;;;19.60;51.10;;;;;;5085902;27;43392;-61
2022/12/21 09:46:53;;;;;;;;;;;19.70;51.20;;;;;;5093220;27;43501;-61
2022/12/21 09:49:24;;;;;;;;;;;19.80;51.20;;;;;;5096730;27;44692;-62
2022/12/21 09:51:53;;;;;;;;;;;19.90;51.00;;;;;;5091619;27;43479;-61
2022/12/21 09:54:22;;;;;;;;;;;19.90;51.00;;;;;;5094567;27;43548;-61
2022/12/21 09:56:51;;;;;;;;;;;19.90;51.10;;;;;;5104679;27;43619;-62
2022/12/21 09:59:20;;;;;;;;;;;20.00;51.20;;;;;;5102498;27;43953;-61
2022/12/21 10:02:00;;;;;;;;;;;20.00;51.10;;;;;;5092593;27;43541;-65
2022/12/21 10:04:37;;;;;;;;;;;20.00;51.40;;;;;;5099918;27;43401;-62
2022/12/21 10:07:27;;;;;;;;;;;20.00;51.40;;;;;;5102777;27;43726;-63
2022/12/21 10:09:54;;;;;;;;;;;20.00;51.20;;;;;;5102293;27;43644;-62
2022/12/21 10:12:34;;;;;;;;;;;20.10;51.10;;;;;;5103749;27;44329;-63
2022/12/21 10:15:19;;;;;;;;;;;20.10;51.30;;;;;;5096086;27;43523;-63
2022/12/21 10:18:05;;;;;;;;;;;20.10;51.10;;;;;;5094216;27;43460;-63
2022/12/21 10:20:52;;;;;;;;;;;20.10;51.20;;;;;;5101531;27;45140;-62
2022/12/21 10:23:32;;;;;;;;;;;20.20;51.20;;;;;;5092521;27;43694;-63
2022/12/21 10:26:02;;;;;;;;;;;20.20;51.10;;;;;;5099336;27;43443;-61
2022/12/21 10:28:35;;;;;;;;;;;20.30;51.20;;;;;;5088656;27;43561;-65
2022/12/21 10:31:09;;;;;;;;;;;20.40;51.30;;;;;;5097774;27;43956;-65
2022/12/21 10:33:40;;;;;;;;;;;20.40;51.10;;;;;;5084511;27;43436;-63
2022/12/21 10:36:15;;;;;;;;;;;20.60;50.80;;;;;;5099186;27;43403;-64
2022/12/21 10:38:44;;;;;;;;;;;20.60;50.60;;;;;;5088556;27;43535;-64
2022/12/21 10:41:34;;;;;;;;;;;20.80;50.60;;;;;;5094757;27;44028;-64
2022/12/21 10:44:02;;;;;;;;;;;20.80;50.40;;;;;;5094624;27;43512;-64
2022/12/21 10:46:33;;;;;;;;;;;20.90;50.40;;;;;;5089095;27;43418;-64
2022/12/21 10:49:12;;;;;;;;;;;21.00;50.30;;;;;;5094302;27;43420;-63
2022/12/21 10:51:40;;;;;;;;;;;21.00;50.20;;;;;;5098883;27;44610;-64
2022/12/21 10:54:09;;;;;;;;;;;21.00;50.00;;;;;;5086608;27;43915;-65
2022/12/21 10:56:41;;;;;;;;;;;21.10;50.00;;;;;;5102852;27;43431;-64
2022/12/21 10:59:15;;;;;;;;;;;21.10;50.00;;;;;;5092273;27;44103;-65
2022/12/21 11:01:42;;;;;;;;;;;21.10;50.00;;;;;;5100987;27;44994;-65
2022/12/21 11:04:26;;;;;;;;;;;21.10;50.00;;;;;;5099428;27;43468;-65
2022/12/21 11:06:59;;;;;;;;;;;21.00;50.00;;;;;;5092126;27;43452;-64
2022/12/21 11:09:54;;;;;;;;;;;21.10;50.10;;;;;;5094545;27;43640;-63
2022/12/21 11:12:48;;;;;;;;;;;21.00;50.10;;;;;;5096942;27;44063;-63
2022/12/21 11:15:19;;;;;;;;;;;21.00;50.20;;;;;;5094805;27;43753;-63
2022/12/21 11:18:19;;;;;;;;;;;21.00;50.30;;;;;;5093431;27;43485;-64
2022/12/21 11:20:48;;;;;;;;;;;21.00;50.30;;;;;;5099116;27;43576;-64
2022/12/21 11:23:15;;;;;;;;;;;20.90;50.30;;;;;;5087606;27;44007;-63
2022/12/21 11:25:43;;;;;;;;;;;21.00;50.40;;;;;;5087203;27;43513;-64
2022/12/21 11:28:10;;;;;;;;;;;21.00;50.40;;;;;;5101272;27;43445;-64
2022/12/21 11:30:38;;;;;;;;;;;20.90;50.40;;;;;;5095891;27;43517;-64
2022/12/21 11:33:06;;;;;;;;;;;21.00;50.40;;;;;;5087144;27;43946;-64
2022/12/21 11:35:34;;;;;;;;;;;21.00;50.40;;;;;;5100224;27;43795;-64
2022/12/21 11:38:01;;;;;;;;;;;21.00;50.50;;;;;;5091664;27;43406;-64
2022/12/21 11:40:29;;;;;;;;;;;20.90;50.50;;;;;;5102078;27;43485;-64
2022/12/21 11:42:59;;;;;;;;;;;20.90;50.60;;;;;;5102137;27;44449;-65
2022/12/21 11:45:54;;;;;;;;;;;20.90;50.60;;;;;;5088453;27;43474;-64
2022/12/21 11:48:45;;;;;;;;;;;21.00;50.70;;;;;;5083582;27;43426;-63
2022/12/21 11:51:37;;;;;;;;;;;21.00;51.20;;;;;;5102345;27;43556;-63
2022/12/21 11:54:23;;;;;;;;;;;21.00;50.70;;;;;;5091835;27;43805;-64
2022/12/21 11:56:57;;;;;;;;;;;21.00;50.80;;;;;;5102915;27;43429;-64
2022/12/21 11:59:33;;;;;;;;;;;21.00;50.70;;;;;;5093203;27;43396;-62
2022/12/21 12:02:19;;;;;;;;;;;20.90;50.60;;;;;;5108225;27;43438;-63
2022/12/21 12:05:04;;;;;;;;;;;20.90;50.60;;;;;;5101667;27;44319;-63
2022/12/21 12:07:43;;;;;;;;;;;20.90;50.70;;;;;;5084824;27;43461;-65
2022/12/21 12:10:29;;;;;;;;;;;20.90;50.70;;;;;;5096455;27;43481;-63
2022/12/21 12:13:05;;;;;;;;;;;20.90;50.70;;;;;;5099292;27;43588;-63
2022/12/21 12:15:32;;;;;;;;;;;20.90;50.80;;;;;;5091626;27;44741;-63
2022/12/21 12:18:18;;;;;;;;;;;20.90;50.90;;;;;;5090083;27;43359;-63
2022/12/21 12:21:04;;;;;;;;;;;20.90;51.00;;;;;;5098925;27;43460;-63
2022/12/21 12:23:38;;;;;;;;;;;20.90;51.00;;;;;;5089151;27;43368;-63
2022/12/21 12:26:25;;;;;;;;;;;20.90;51.00;;;;;;5082761;27;44030;-63
2022/12/21 12:29:02;;;;;;;;;;;20.90;51.10;;;;;;5091512;27;43431;-62
2022/12/21 12:31:39;;;;;;;;;;;20.80;51.00;;;;;;5091859;27;43507;-62
2022/12/21 12:34:06;;;;;;;;;;;20.90;51.10;;;;;;5098940;27;43501;-63
2022/12/21 12:36:37;;;;;;;;;;;20.90;51.10;;;;;;5086282;27;43901;-63
2022/12/21 12:39:20;;;;;;;;;;;20.90;51.10;;;;;;5092960;27;43897;-62
2022/12/21 12:42:01;;;;;;;;;;;20.90;51.20;;;;;;5096785;27;43948;-62
2022/12/21 12:44:28;;;;;;;;;;;20.90;51.30;;;;;;5097721;27;43457;-63
2022/12/21 12:47:00;;;;;;;;;;;20.80;51.00;;;;;;5094534;27;44684;-63
2022/12/21 12:49:46;;;;;;;;;;;20.90;51.20;;;;;;5100801;27;43508;-62
2022/12/21 12:52:17;;;;;;;;;;;20.90;51.30;;;;;;5092745;27;43382;-62
2022/12/21 12:54:50;;;;;;;;;;;20.90;51.30;;;;;;5106714;27;43466;-62
2022/12/21 12:57:25;;;;;;;;;;;20.90;51.30;;;;;;5100285;27;44965;-62
2022/12/21 12:59:59;;;;;;;;;;;20.90;51.20;;;;;;5094898;27;43758;-62
2022/12/21 13:02:26;;;;;;;;;;;21.00;51.30;;;;;;5102865;27;43444;-61
2022/12/21 13:04:57;;;;;;;;;;;21.00;51.30;;;;;;5100150;27;44053;-62
2022/12/21 13:07:36;;;;;;;;;;;21.00;51.30;;;;;;5095801;27;43896;-62
2022/12/21 13:10:29;;;;;;;;;;;20.90;51.20;;;;;;5095239;27;43797;-62
2022/12/21 13:13:00;;;;;;;;;;;20.90;51.20;;;;;;5093209;27;43549;-62
2022/12/21 13:15:37;;;;;;;;;;;20.90;51.30;;;;;;5104027;27;43585;-62
2022/12/21 13:18:15;;;;;;;;;;;20.90;51.40;;;;;;5093714;27;44006;-63
2022/12/21 13:20:44;;;;;;;;;;;20.90;51.30;;;;;;5085248;27;43514;-63
2022/12/21 13:23:19;;;;;;;;;;;20.90;51.30;;;;;;5110955;27;44056;-63
2022/12/21 13:26:00;;;;;;;;;;;21.00;51.30;;;;;;5088502;27;43417;-63
2022/12/21 13:28:35;;;;;;;;;;;21.00;51.10;;;;;;5094050;27;43864;-62
2022/12/21 13:31:04;;;;;;;;;;;21.00;51.40;;;;;;5110284;27;43801;-63
2022/12/21 13:33:33;;;;;;;;;;;21.00;51.10;;;;;;5107999;27;43450;-63
2022/12/21 13:36:07;;;;;;;;;;;21.00;51.30;;;;;;5096904;27;43655;-62
2022/12/21 13:38:53;;;;;;;;;;;21.00;51.40;;;;;;5094480;27;43750;-63
2022/12/21 13:41:27;;;;;;;;;;;21.00;51.40;;;;;;5102335;27;43459;-63
2022/12/21 13:44:01;;;;;;;;;;;21.00;51.40;;;;;;5101813;27;43442;-63
2022/12/21 13:46:47;;;;;;;;;;;21.00;51.40;;;;;;5113230;27;43577;-63
2022/12/21 13:49:17;;;;;;;;;;;21.00;51.40;;;;;;5098823;27;43903;-61
2022/12/21 13:51:53;;;;;;;;;;;21.00;51.50;;;;;;5103644;27;43444;-60
2022/12/21 13:54:30;;;;;;;;;;;21.00;51.40;;;;;;5097924;27;43441;-61
2022/12/21 13:57:18;;;;;;;;;;;21.10;51.50;;;;;;5105205;27;43506;-60
2022/12/21 13:59:51;;;;;;;;;;;21.10;51.40;;;;;;5094631;27;43878;-61
2022/12/21 14:02:34;;;;;;;;;;;21.10;51.50;;;;;;5093188;27;43442;-61
2022/12/21 14:05:11;;;;;;;;;;;21.10;51.40;;;;;;5100946;27;43477;-61
2022/12/21 14:07:45;;;;;;;;;;;21.10;51.40;;;;;;5096049;27;43438;-60
2022/12/21 14:10:30;;;;;;;;;;;21.10;51.40;;;;;;5093943;27;44808;-61
2022/12/21 14:13:08;;;;;;;;;;;21.10;51.30;;;;;;5100748;27;43424;-60
2022/12/21 14:15:48;;;;;;;;;;;21.10;51.30;;;;;;5095408;27;43487;-59
2022/12/21 14:18:16;;;;;;;;;;;21.20;51.30;;;;;;5111086;27;43522;-60
2022/12/21 14:20:49;;;;;;;;;;;21.20;51.10;;;;;;5105753;27;44037;-60
2022/12/21 14:23:28;;;;;;;;;;;21.20;51.20;;;;;;5086111;27;43506;-61
2022/12/21 14:25:56;;;;;;;;;;;21.10;51.10;;;;;;5089597;27;43414;-60
2022/12/21 14:28:25;;;;;;;;;;;21.00;51.20;;;;;;5094969;27;43531;-60
2022/12/21 14:31:01;;;;;;;;;;;21.10;51.20;;;;;;5099845;27;44021;-60
2022/12/21 14:33:47;;;;;;;;;;;21.10;51.10;;;;;;5089260;27;43455;-61
2022/12/21 14:36:35;;;;;;;;;;;21.10;51.20;;;;;;5089817;27;43445;-61
2022/12/21 14:39:03;;;;;;;;;;;21.10;51.10;;;;;;5099951;27;44042;-59
2022/12/21 14:41:32;;;;;;;;;;;21.20;51.00;;;;;;5096072;27;44649;-59
2022/12/21 14:44:23;;;;;;;;;;;21.20;51.00;;;;;;5099253;27;43625;-60
2022/12/21 14:47:08;;;;;;;;;;;21.20;51.00;;;;;;5111387;27;43429;-60
2022/12/21 14:49:40;;;;;;;;;;;21.20;51.00;;;;;;5098334;27;43498;-59
2022/12/21 14:52:17;;;;;;;;;;;21.20;51.00;;;;;;5085821;27;43782;-59
2022/12/21 14:54:45;;;;;;;;;;;21.20;51.00;;;;;;5091802;27;43451;-60